Time;durP1;ratioP1;P1;durP2;ratioP2;P2;SDS_P1;SDS_P2;PMS_P1;PMS_P2;Temp;Humidity;BMP_temperature;BMP_pressure;BME280_temperature;BME280_humidity;BME280_pressure;Samples;Min_cycle;Max_cycle;Signal;HPM_P1;HPM_P2
2022/08/24 00:02:05;;;;;;;1.30;1.17;;;;;;;18.88;90.61;99536.78;5073918;28;20487;-69
2022/08/24 00:04:34;;;;;;;3.05;2.63;;;;;;;18.93;90.65;99542.63;5073891;28;20445;-68
2022/08/24 00:07:06;;;;;;;1.38;1.27;;;;;;;18.98;90.77;99538.13;5074002;28;20444;-68
2022/08/24 00:09:57;;;;;;;2.20;1.90;;;;;;;19.01;90.78;99532.81;5073899;28;20121;-68
2022/08/24 00:12:26;;;;;;;0.90;0.90;;;;;;;19.05;90.72;99539.59;5073517;28;20135;-68
2022/08/24 00:14:55;;;;;;;1.52;1.30;;;;;;;19.11;90.73;99539.34;5073480;28;20041;-68
2022/08/24 00:17:24;;;;;;;1.27;1.13;;;;;;;19.18;90.78;99545.97;5073486;28;20036;-69
2022/08/24 00:19:53;;;;;;;2.60;2.15;;;;;;;19.23;90.81;99554.41;5073732;28;20380;-69
2022/08/24 00:22:21;;;;;;;1.75;1.65;;;;;;;19.28;90.78;99547.31;5073731;28;20071;-68
2022/08/24 00:24:50;;;;;;;1.95;1.77;;;;;;;19.28;90.64;99547.31;5073344;28;20517;-69
2022/08/24 00:27:20;;;;;;;4.40;2.50;;;;;;;19.27;90.43;99546.47;5073307;28;20044;-69
2022/08/24 00:29:49;;;;;;;2.47;2.28;;;;;;;19.30;90.69;99545.50;5073650;28;20491;-68
2022/08/24 00:32:17;;;;;;;2.37;1.47;;;;;;;19.34;90.75;99552.25;5055713;28;20457;-68
2022/08/24 00:34:47;;;;;;;2.47;1.83;;;;;;;19.37;90.65;99552.16;5055630;28;20463;-69
2022/08/24 00:37:27;;;;;;;3.33;2.28;;;;;;;19.39;90.83;99552.94;5073232;28;20056;-68
2022/08/24 00:39:56;;;;;;;1.70;1.60;;;;;;;19.39;90.72;99553.78;5074449;28;20045;-68
2022/08/24 00:42:26;;;;;;;2.03;1.73;;;;;;;19.38;90.76;99546.09;5077262;28;20323;-68
2022/08/24 00:44:55;;;;;;;1.67;1.48;;;;;;;19.39;90.51;99550.34;5059732;28;20070;-69
2022/08/24 00:47:32;;;;;;;2.03;1.90;;;;;;;19.37;90.54;99557.34;5078226;28;20417;-69
2022/08/24 00:50:05;;;;;;;1.83;1.30;;;;;;;19.38;90.64;99556.44;5059438;28;20373;-69
2022/08/24 00:52:39;;;;;;;2.10;1.60;;;;;;;19.36;90.49;99558.25;5077656;28;20122;-69
2022/08/24 00:55:12;;;;;;;2.00;1.77;;;;;;;19.35;90.46;99559.97;5077046;28;20079;-68
2022/08/24 00:57:47;;;;;;;4.03;2.30;;;;;;;19.32;90.50;99564.41;5059583;28;20040;-68
2022/08/24 01:00:19;;;;;;;2.58;1.80;;;;;;;19.31;90.34;99562.72;5077320;28;20072;-68
2022/08/24 01:02:51;;;;;;;2.97;2.25;;;;;;;19.32;90.48;99561.81;5077266;28;20402;-69
2022/08/24 01:05:21;;;;;;;3.38;2.25;;;;;;;19.32;90.51;99556.63;5077079;28;20147;-68
2022/08/24 01:07:50;;;;;;;1.67;1.57;;;;;;;19.32;90.60;99554.03;5076691;28;20122;-69
2022/08/24 01:10:23;;;;;;;4.93;2.25;;;;;;;19.31;90.61;99554.97;5059299;28;20273;-68
2022/08/24 01:13:00;;;;;;;1.55;1.35;;;;;;;19.32;90.48;99554.03;5077040;28;20048;-68
2022/08/24 01:15:30;;;;;;;1.65;1.52;;;;;;;19.31;90.40;99552.38;5058840;28;20048;-69
2022/08/24 01:20:40;;;;;;;1.40;1.30;;;;;;;19.26;90.45;99551.72;5076572;28;20049;-69
2022/08/24 01:23:16;;;;;;;2.73;2.37;;;;;;;19.24;90.54;99550.94;5058695;28;20048;-68
2022/08/24 01:25:46;;;;;;;2.28;2.08;;;;;;;19.19;90.59;99561.47;5076889;28;20399;-68
2022/08/24 01:28:18;;;;;;;1.17;1.08;;;;;;;19.13;90.55;99553.91;5058574;28;20036;-69
2022/08/24 01:30:55;;;;;;;1.80;1.50;;;;;;;19.16;90.74;99553.81;5058999;28;20119;-69
2022/08/24 01:33:27;;;;;;;3.20;1.80;;;;;;;19.17;90.81;99549.47;5076327;28;20095;-69
2022/08/24 01:36:01;;;;;;;1.70;1.58;;;;;;;19.15;90.83;99553.84;5058421;28;20055;-68
2022/08/24 01:38:32;;;;;;;1.40;1.30;;;;;;;19.12;90.85;99551.38;5076243;28;20131;-68
2022/08/24 01:41:03;;;;;;;;;;;;;;;19.11;90.96;99566.06;5076599;28;20521;-69
2022/08/24 01:43:32;;;;;;;3.55;2.63;;;;;;;19.12;91.11;99566.91;5058645;28;19920;-69
2022/08/24 01:46:08;;;;;;;6.43;1.65;;;;;;;19.11;91.12;99570.38;5058182;28;20054;-68
2022/08/24 01:48:36;;;;;;;;;;;;;;;19.06;91.01;99567.13;5058596;28;20056;-68
2022/08/24 01:51:06;;;;;;;1.15;1.05;;;;;;;19.08;91.01;99570.50;5075626;28;19924;-69
2022/08/24 01:53:35;;;;;;;3.20;2.65;;;;;;;19.10;90.67;99568.72;5057787;28;20128;-68
2022/08/24 01:56:07;;;;;;;2.15;1.83;;;;;;;19.13;90.82;99568.59;5075953;28;20040;-68
2022/08/24 01:58:36;;;;;;;1.65;1.55;;;;;;;19.14;90.74;99559.94;5058034;28;20094;-68
2022/08/24 02:01:06;;;;;;;2.20;1.87;;;;;;;19.15;90.83;99562.44;5058049;28;20051;-68
2022/08/24 02:03:34;;;;;;;1.42;0.77;;;;;;;19.12;90.98;99565.16;5076075;28;20135;-69
2022/08/24 02:06:04;;;;;;;1.42;1.33;;;;;;;19.11;90.71;99565.22;5057829;28;20037;-69
2022/08/24 02:08:34;;;;;;;2.35;1.58;;;;;;;19.12;90.66;99583.25;5057383;28;20483;-69
2022/08/24 02:11:08;;;;;;;2.55;1.20;;;;;;;19.11;90.53;99586.75;5075736;28;20049;-68
2022/08/24 02:13:41;;;;;;;2.22;1.52;;;;;;;19.08;90.51;99591.19;5075647;28;20110;-69
2022/08/24 02:16:10;;;;;;;1.63;1.52;;;;;;;19.05;90.66;99591.31;5075582;28;20131;-68
2022/08/24 02:18:40;;;;;;;2.78;2.47;;;;;;;19.05;90.69;99586.16;5057965;28;20441;-69
2022/08/24 02:21:09;;;;;;;2.05;1.65;;;;;;;19.04;90.67;99587.03;5057956;28;20052;-68
2022/08/24 02:23:39;;;;;;;1.48;1.35;;;;;;;19.04;90.67;99585.31;5057904;28;20414;-68
2022/08/24 02:26:11;;;;;;;1.60;1.42;;;;;;;19.05;90.63;99591.31;5075411;28;20090;-68
2022/08/24 02:28:41;;;;;;;9.32;1.40;;;;;;;19.02;90.53;99575.91;5057397;28;20489;-69
2022/08/24 02:31:12;;;;;;;2.20;1.45;;;;;;;19.01;90.71;99594.91;5057568;28;20058;-68
2022/08/24 02:33:43;;;;;;;1.75;1.63;;;;;;;19.02;90.63;99592.28;5057386;28;20068;-69
2022/08/24 02:36:14;;;;;;;3.28;2.03;;;;;;;19.01;90.58;99592.31;5075153;28;20039;-68
2022/08/24 02:38:58;;;;;;;3.20;2.10;;;;;;;19.01;90.82;99600.06;5075372;28;20049;-68
2022/08/24 02:41:29;;;;;;;2.33;1.75;;;;;;;19.02;90.62;99592.28;5057560;28;20041;-68
2022/08/24 02:43:58;;;;;;;1.73;1.60;;;;;;;19.05;90.53;99588.75;5057563;28;20079;-68
2022/08/24 02:46:28;;;;;;;;;;;;;;;19.01;90.46;99587.13;5058147;28;20083;-69
2022/08/24 02:48:59;;;;;;;0.98;0.95;;;;;;;18.98;90.42;99585.50;5075024;28;20370;-69
2022/08/24 02:51:44;;;;;;;1.88;1.63;;;;;;;18.95;90.42;99584.78;5057450;28;20052;-69
2022/08/24 02:54:21;;;;;;;5.50;2.55;;;;;;;18.90;90.27;99586.69;5074797;28;20052;-68
2022/08/24 02:56:54;;;;;;;1.85;1.48;;;;;;;18.89;90.43;99585.00;5075129;28;20497;-69
2022/08/24 02:59:23;;;;;;;2.45;1.83;;;;;;;18.80;90.18;99581.00;5056874;28;20048;-68
2022/08/24 03:01:53;;;;;;;1.90;1.58;;;;;;;18.71;90.27;99579.56;5057055;28;20076;-68
2022/08/24 03:04:24;;;;;;;1.83;1.50;;;;;;;18.70;90.33;99585.66;5074547;28;20040;-69
2022/08/24 03:06:52;;;;;;;3.50;1.70;;;;;;;18.69;90.34;99583.97;5057043;28;20045;-68
2022/08/24 03:09:22;;;;;;;3.33;2.90;;;;;;;18.69;90.31;99594.31;5056340;28;20045;-68
2022/08/24 03:11:51;;;;;;;1.67;1.58;;;;;;;18.64;90.27;99596.19;5074446;28;20044;-68
2022/08/24 03:14:22;;;;;;;1.75;1.50;;;;;;;18.61;90.45;99592.91;5056854;28;20487;-69
2022/08/24 03:16:51;;;;;;;2.80;1.50;;;;;;;18.57;90.34;99593.91;5056921;28;20052;-68
2022/08/24 03:19:21;;;;;;;1.42;1.33;;;;;;;18.48;90.29;99599.38;5056736;28;20517;-68
2022/08/24 03:21:52;;;;;;;5.05;3.38;;;;;;;18.41;90.38;99593.53;5074283;28;20555;-68
2022/08/24 03:24:22;;;;;;;2.30;1.50;;;;;;;18.41;90.45;99592.69;5056384;28;20047;-67
2022/08/24 03:26:52;;;;;;;2.33;1.88;;;;;;;18.42;90.50;99594.38;5039968;28;20048;-68
2022/08/24 03:29:22;;;;;;;1.73;1.27;;;;;;;18.39;90.52;99582.41;5056445;28;20051;-68
2022/08/24 03:31:52;;;;;;;1.33;1.10;;;;;;;18.45;90.90;99589.13;5056388;28;20050;-68
2022/08/24 03:34:20;;;;;;;1.73;1.30;;;;;;;18.54;90.95;99594.84;5056218;28;20499;-68
2022/08/24 03:36:49;;;;;;;1.87;1.70;;;;;;;18.61;90.98;99595.47;5056400;28;20285;-68
2022/08/24 03:39:18;;;;;;;3.63;2.30;;;;;;;18.60;90.77;99592.03;5056419;28;20339;-68
2022/08/24 03:41:50;;;;;;;1.77;1.42;;;;;;;18.59;90.84;99603.31;5073907;28;20368;-68
2022/08/24 03:44:19;;;;;;;2.37;1.80;;;;;;;18.53;90.79;99598.31;5056322;28;20048;-68
2022/08/24 03:46:55;;;;;;;1.45;1.08;;;;;;;18.48;90.58;99594.19;5073742;28;20050;-69
2022/08/24 03:49:26;;;;;;;7.05;2.50;;;;;;;18.45;90.63;99595.13;5073969;28;20052;-68
2022/08/24 03:51:55;;;;;;;2.63;2.07;;;;;;;18.48;90.71;99599.38;5056229;28;20066;-68
2022/08/24 03:54:24;;;;;;;3.47;2.63;;;;;;;18.58;90.84;99599.00;5056433;28;20048;-68
2022/08/24 03:56:52;;;;;;;3.53;2.03;;;;;;;18.62;90.76;99598.00;5056158;28;20033;-68
2022/08/24 03:59:22;;;;;;;;;;;;;;;18.64;90.67;99596.19;5074005;28;20045;-68
2022/08/24 04:01:56;;;;;;;4.40;1.08;;;;;;;18.61;90.59;99590.31;5055858;28;20437;-69
2022/08/24 04:04:28;;;;;;;2.08;1.58;;;;;;;18.53;90.48;99590.56;5074264;28;20143;-68
2022/08/24 04:06:57;;;;;;;2.05;1.70;;;;;;;18.51;90.32;99600.13;5055765;28;20048;-68
2022/08/24 04:09:27;;;;;;;2.78;2.30;;;;;;;18.53;90.50;99608.66;5073295;28;20052;-69
2022/08/24 04:11:58;;;;;;;1.40;1.30;;;;;;;18.60;90.58;99614.47;5055588;28;20040;-69
2022/08/24 04:14:27;;;;;;;1.45;1.27;;;;;;;18.66;90.54;99620.28;5055222;28;20040;-67
2022/08/24 04:17:04;;;;;;;1.88;1.58;;;;;;;18.69;90.38;99609.81;5073465;28;20050;-68
2022/08/24 04:19:56;;;;;;;2.25;1.80;;;;;;;18.68;90.34;99610.72;5073782;28;20045;-68
2022/08/24 04:22:32;;;;;;;1.05;0.90;;;;;;;18.70;90.37;99621.88;5073462;28;20048;-68
2022/08/24 04:25:04;;;;;;;1.20;1.10;;;;;;;18.74;90.32;99610.50;5055709;28;20052;-68
2022/08/24 04:27:40;;;;;;;1.92;1.83;;;;;;;18.80;90.22;99611.19;5073400;28;20556;-68
2022/08/24 04:30:10;;;;;;;3.03;2.17;;;;;;;18.82;90.15;99609.41;5073296;28;20490;-69
2022/08/24 04:33:09;;;;;;;2.25;2.05;;;;;;;18.89;90.10;99616.03;5068630;28;20494;-68
2022/08/24 04:35:40;;;;;;;5.82;2.97;;;;;;;18.91;90.17;99619.44;5055542;28;20566;-68
2022/08/24 04:38:10;;;;;;;2.80;1.80;;;;;;;18.94;90.10;99611.53;5055274;28;20517;-69
2022/08/24 04:40:45;;;;;;;1.60;1.27;;;;;;;19.01;90.13;99616.44;5073468;28;20102;-68
2022/08/24 04:43:17;;;;;;;3.28;2.28;;;;;;;19.02;89.92;99619.88;5055721;28;20395;-69
2022/08/24 04:45:49;;;;;;;1.92;1.80;;;;;;;19.08;89.86;99622.25;5073216;28;20040;-68
2022/08/24 04:48:22;;;;;;;1.73;1.58;;;;;;;19.10;89.94;99620.47;5073209;28;20041;-68
2022/08/24 04:50:52;;;;;;;3.15;1.33;;;;;;;19.15;89.74;99628.88;5073052;28;20051;-68
2022/08/24 04:53:21;;;;;;;1.65;1.40;;;;;;;19.20;89.74;99620.06;5073056;28;20055;-68
2022/08/24 04:55:51;;;;;;;5.00;1.75;;;;;;;19.26;89.67;99621.59;5056138;28;20546;-68
2022/08/24 04:58:20;;;;;;;2.50;1.93;;;;;;;19.32;89.53;99629.97;5073408;28;20037;-68
2022/08/24 05:00:49;;;;;;;1.20;1.10;;;;;;;19.37;89.33;99622.91;5055167;28;20278;-68
2022/08/24 05:03:18;;;;;;;2.03;1.73;;;;;;;19.41;89.10;99618.47;5055398;28;20043;-69
2022/08/24 05:05:51;;;;;;;2.78;2.50;;;;;;;19.44;88.91;99617.47;5073007;28;20045;-67
2022/08/24 05:08:20;;;;;;;4.65;3.13;;;;;;;19.46;88.67;99620.88;5052042;28;20052;-68
2022/08/24 05:10:50;;;;;;;2.70;2.05;;;;;;;19.48;88.58;99617.34;5053110;28;20132;-67
2022/08/24 05:13:21;;;;;;;3.28;2.95;;;;;;;19.51;88.28;99621.56;5052849;28;20136;-67
2022/08/24 05:15:49;;;;;;;5.50;3.50;;;;;;;19.53;88.10;99620.56;5051804;28;20048;-67
2022/08/24 05:18:18;;;;;;;1.83;1.67;;;;;;;19.56;87.88;99628.22;5051692;28;20047;-67
2022/08/24 05:20:49;;;;;;;3.72;3.13;;;;;;;19.62;87.66;99622.81;5051953;28;20041;-67
2022/08/24 05:23:19;;;;;;;2.55;2.00;;;;;;;19.68;87.38;99625.16;5052760;28;20041;-67
2022/08/24 05:25:48;;;;;;;2.67;1.75;;;;;;;19.74;87.34;99613.72;5051568;28;20399;-68
2022/08/24 05:28:17;;;;;;;1.88;1.65;;;;;;;19.81;87.08;99620.38;5054382;28;20141;-67
2022/08/24 05:30:46;;;;;;;6.53;3.88;;;;;;;19.85;87.02;99617.59;5055955;28;20402;-66
2022/08/24 05:33:18;;;;;;;13.55;3.75;;;;;;;19.92;86.72;99620.78;5055004;28;20045;-67
2022/08/24 05:35:49;;;;;;;2.73;2.10;;;;;;;19.97;86.60;99622.28;5055355;28;20475;-68
2022/08/24 05:38:18;;;;;;;3.03;1.90;;;;;;;20.00;86.15;99622.16;5056471;28;20044;-67
2022/08/24 05:40:46;;;;;;;9.57;3.00;;;;;;;20.07;86.04;99620.16;5055228;28;20041;-67
2022/08/24 05:43:16;;;;;;;2.85;2.13;;;;;;;20.14;85.85;99623.34;5055184;28;20278;-67
2022/08/24 05:45:44;;;;;;;4.93;2.00;;;;;;;20.19;85.77;99618.81;5054574;28;20137;-68
2022/08/24 05:48:14;;;;;;;1.58;1.40;;;;;;;20.29;85.42;99623.63;5056007;28;20076;-68
2022/08/24 05:51:09;;;;;;;1.85;1.67;;;;;;;20.27;85.05;99598.66;5045375;28;20517;-68
2022/08/24 05:53:50;;;;;;;2.35;2.13;;;;;;;20.51;84.83;99623.56;5055916;28;20053;-68
2022/08/24 05:56:22;;;;;;;1.80;1.60;;;;;;;20.56;84.49;99621.63;5056000;28;20057;-68
2022/08/24 05:58:51;;;;;;;4.38;1.77;;;;;;;20.61;84.32;99624.88;5055887;28;20052;-68
2022/08/24 06:01:24;;;;;;;5.55;2.47;;;;;;;20.65;83.75;99627.28;5055877;28;20136;-69
2022/08/24 06:03:54;;;;;;;2.10;1.92;;;;;;;20.73;83.39;99623.50;5054868;28;20383;-68
2022/08/24 06:06:27;;;;;;;2.05;1.85;;;;;;;20.80;83.49;99610.19;5055760;28;20049;-68
2022/08/24 06:08:58;;;;;;;2.22;2.05;;;;;;;20.88;83.06;99622.81;5054392;28;20100;-68
2022/08/24 06:11:30;;;;;;;3.08;2.47;;;;;;;20.88;83.09;99613.28;5055930;28;20047;-67
2022/08/24 06:14:04;;;;;;;3.53;2.83;;;;;;;20.89;82.83;99609.78;5055485;28;20052;-68
2022/08/24 06:16:41;;;;;;;1.25;1.10;;;;;;;20.98;82.84;99611.97;5055813;28;20041;-67
2022/08/24 06:19:12;;;;;;;6.85;2.53;;;;;;;21.10;82.74;99603.69;5054886;28;20399;-68
2022/08/24 06:21:46;;;;;;;3.45;2.38;;;;;;;21.19;82.32;99603.25;5055499;28;20495;-67
2022/08/24 06:24:16;;;;;;;2.60;1.92;;;;;;;21.26;82.18;99599.47;5054275;28;20048;-67
2022/08/24 06:29:29;;;;;;;;;;;;;;;21.40;82.04;99603.22;5055705;28;20495;-67
2022/08/24 06:32:09;;;;;;;2.22;1.73;;;;;;;21.48;81.96;99603.69;5055904;28;19924;-68
2022/08/24 06:34:38;;;;;;;1.90;1.60;;;;;;;21.60;81.65;99609.16;5055170;28;20094;-67
2022/08/24 06:37:09;;;;;;;3.17;2.60;;;;;;;21.68;81.59;99607.06;5053932;28;20056;-68
2022/08/24 06:39:39;;;;;;;3.28;2.70;;;;;;;21.81;81.31;99612.53;5055202;28;20072;-67
2022/08/24 06:42:07;;;;;;;5.50;2.00;;;;;;;21.91;81.10;99613.78;5053278;28;20067;-67
2022/08/24 06:44:36;;;;;;;1.83;1.27;;;;;;;21.98;80.90;99612.56;5053470;28;20601;-67
2022/08/24 06:47:13;;;;;;;2.60;2.28;;;;;;;22.13;80.78;99604.03;5054087;28;20152;-67
2022/08/24 06:49:42;;;;;;;6.03;2.90;;;;;;;22.28;80.21;99612.84;5053797;28;20037;-68
2022/08/24 06:52:12;;;;;;;1.37;1.20;;;;;;;22.38;80.00;99620.13;5054753;28;20557;-68
2022/08/24 06:54:42;;;;;;;1.88;1.17;;;;;;;22.47;79.71;99624.84;5054051;28;20049;-68
2022/08/24 06:57:10;;;;;;;1.75;1.65;;;;;;;22.60;79.19;99633.72;5053812;28;20049;-67
2022/08/24 06:59:41;;;;;;;4.32;2.58;;;;;;;22.66;78.33;99623.03;5054976;28;20045;-68
2022/08/24 07:02:14;;;;;;;2.38;1.92;;;;;;;22.75;77.92;99628.72;5053872;28;20131;-67
2022/08/24 07:04:44;;;;;;;2.10;1.65;;;;;;;22.79;76.86;99625.00;5054008;28;20514;-68
2022/08/24 07:07:26;;;;;;;5.82;2.25;;;;;;;22.83;75.76;99632.59;5065710;28;20109;-67
2022/08/24 07:09:54;;;;;;;5.82;2.10;;;;;;;22.93;75.50;99635.56;5064963;28;20126;-68
2022/08/24 07:12:25;;;;;;;1.67;1.57;;;;;;;23.03;75.53;99632.41;5094582;28;20047;-68
2022/08/24 07:14:55;;;;;;;3.28;2.83;;;;;;;23.18;75.15;99633.34;5095052;28;20051;-68
2022/08/24 07:17:24;;;;;;;7.95;2.55;;;;;;;23.29;74.36;99636.22;5076495;28;20047;-67
2022/08/24 07:19:52;;;;;;;2.03;1.58;;;;;;;23.29;73.18;99628.41;5069685;28;20457;-67
2022/08/24 07:22:34;;;;;;;5.75;2.97;;;;;;;23.30;73.19;99638.75;5074349;28;20056;-69
2022/08/24 07:25:03;;;;;;;2.05;1.63;;;;;;;23.37;73.91;99634.06;5056376;28;20098;-66
2022/08/24 07:27:34;;;;;;;2.58;1.38;;;;;;;23.42;73.86;99637.28;5074151;28;20045;-69
2022/08/24 07:30:03;;;;;;;4.32;2.60;;;;;;;23.42;73.94;99636.47;5056339;28;20033;-68
2022/08/24 07:32:52;;;;;;;1.70;1.60;;;;;;;23.53;73.59;99640.16;5056650;28;20036;-66
2022/08/24 07:35:21;;;;;;;2.70;2.28;;;;;;;23.60;72.87;99636.28;5056274;28;20041;-67
2022/08/24 07:37:52;;;;;;;2.15;1.90;;;;;;;23.67;72.60;99635.03;5070733;28;20075;-68
2022/08/24 07:40:21;;;;;;;6.30;2.17;;;;;;;23.75;72.09;99635.47;5060719;28;20382;-67
2022/08/24 07:42:52;;;;;;;2.42;1.90;;;;;;;23.81;71.47;99635.09;5060540;28;20040;-68
2022/08/24 07:45:22;;;;;;;1.52;1.42;;;;;;;23.85;70.94;99635.78;5061521;28;20044;-68
2022/08/24 07:47:53;;;;;;;4.57;1.27;;;;;;;23.89;71.02;99632.94;5073836;28;20040;-67
2022/08/24 07:50:36;;;;;;;3.58;1.50;;;;;;;23.90;70.84;99638.97;5073103;28;20048;-69
2022/08/24 07:53:07;;;;;;;2.47;2.10;;;;;;;24.00;70.82;99634.91;5073752;28;20045;-66
2022/08/24 07:55:42;;;;;;;1.10;0.93;;;;;;;24.10;70.82;99636.13;5075424;28;20066;-66
2022/08/24 07:58:14;;;;;;;3.00;1.80;;;;;;;24.25;70.55;99637.00;5055917;28;20051;-68
2022/08/24 08:00:46;;;;;;;3.90;2.80;;;;;;;24.31;70.60;99639.25;5057189;28;20052;-68
2022/08/24 08:03:15;;;;;;;1.33;1.23;;;;;;;24.35;69.88;99640.78;5056215;28;20082;-67
2022/08/24 08:05:48;;;;;;;2.53;1.60;;;;;;;24.41;69.32;99650.84;5073755;28;20064;-67
2022/08/24 08:08:19;;;;;;;1.20;1.10;;;;;;;24.42;68.84;99653.41;5066378;28;20053;-67
2022/08/24 08:10:49;;;;;;;3.42;1.92;;;;;;;24.50;69.00;99661.59;5064359;28;20131;-69
2022/08/24 08:13:20;;;;;;;2.00;1.88;;;;;;;24.61;69.12;99653.16;5067007;28;20494;-67
2022/08/24 08:15:49;;;;;;;2.40;1.70;;;;;;;24.74;68.43;99648.88;5057876;28;20045;-68
2022/08/24 08:18:19;;;;;;;3.08;1.83;;;;;;;24.80;68.31;99648.56;5072205;28;20048;-68
2022/08/24 08:20:48;;;;;;;3.60;1.75;;;;;;;24.87;68.29;99649.88;5065431;28;20068;-68
2022/08/24 08:26:14;;;;;;;1.75;1.65;;;;;;;25.07;68.10;99641.69;5051730;28;20098;-68
2022/08/24 08:29:11;;;;;;;6.32;1.40;;;;;;;25.10;68.02;99657.16;5052249;28;20049;-67
2022/08/24 08:31:42;;;;;;;2.80;2.03;;;;;;;25.17;67.71;99658.47;5054154;28;20053;-67
2022/08/24 08:34:11;;;;;;;2.13;1.58;;;;;;;25.29;67.11;99652.50;5052144;28;20395;-67
2022/08/24 08:36:41;;;;;;;2.53;1.90;;;;;;;25.43;66.39;99658.66;5051892;28;20518;-66
2022/08/24 08:39:16;;;;;;;3.53;1.90;;;;;;;25.42;65.95;99651.75;5053192;28;20081;-65
2022/08/24 08:42:13;;;;;;;1.58;1.42;;;;;;;25.39;66.13;99649.34;5052434;28;20064;-68
2022/08/24 08:45:02;;;;;;;0.98;0.82;;;;;;;25.49;66.22;99653.06;5041410;28;20491;-67
2022/08/24 08:48:09;;;;;;;1.38;1.27;;;;;;;25.62;65.59;99654.84;5052950;28;20079;-66
2022/08/24 08:51:09;;;;;;;0.85;0.85;;;;;;;25.68;64.95;99648.38;5029113;28;20157;-67
2022/08/24 08:54:08;;;;;;;1.27;1.00;;;;;;;25.84;64.34;99649.09;5052493;28;20052;-68
2022/08/24 08:56:55;;;;;;;1.38;1.23;;;;;;;25.87;63.86;99643.66;5053303;28;20059;-67
2022/08/24 08:59:47;;;;;;;2.10;1.40;;;;;;;25.94;63.76;99650.16;5053084;28;20077;-68
2022/08/24 09:02:32;;;;;;;2.03;1.83;;;;;;;26.12;64.47;99651.66;5056351;28;20049;-68
2022/08/24 09:05:35;;;;;;;2.00;1.58;;;;;;;26.25;63.91;99649.91;5055754;28;20049;-68
2022/08/24 09:08:17;;;;;;;4.47;2.47;;;;;;;26.39;64.20;99652.47;5019524;28;20099;-69
2022/08/24 09:10:56;;;;;;;2.38;1.70;;;;;;;26.52;64.34;99653.31;5055947;28;20403;-69
2022/08/24 09:13:41;;;;;;;3.38;2.22;;;;;;;26.63;64.05;99653.44;5056659;28;20051;-69
2022/08/24 09:16:31;;;;;;;1.80;1.70;;;;;;;26.76;64.23;99650.03;5055864;28;20088;-69
2022/08/24 09:19:23;;;;;;;2.10;1.60;;;;;;;26.84;64.09;99658.22;5056645;28;20044;-68
2022/08/24 09:22:14;;;;;;;1.55;1.45;;;;;;;26.83;63.91;99651.28;5057381;28;20387;-68
2022/08/24 09:25:10;;;;;;;1.98;1.75;;;;;;;26.81;63.49;99654.03;5056898;28;20056;-68
2022/08/24 09:28:14;;;;;;;1.98;1.30;;;;;;;26.85;62.71;99652.84;5056410;28;20517;-68
2022/08/24 09:31:05;;;;;;;2.92;2.05;;;;;;;26.88;62.64;99654.44;5053440;28;20067;-67
2022/08/24 09:33:43;;;;;;;3.13;2.50;;;;;;;26.96;62.68;99652.13;5055966;28;20083;-68
2022/08/24 09:36:18;;;;;;;1.40;1.30;;;;;;;27.05;63.14;99646.25;5056273;28;20049;-69
2022/08/24 09:38:58;;;;;;;2.13;1.63;;;;;;;27.27;63.28;99644.69;5056664;28;20055;-68
2022/08/24 09:41:53;;;;;;;2.05;1.58;;;;;;;27.43;62.93;99641.00;5056326;28;20044;-69
2022/08/24 09:44:44;;;;;;;2.80;1.40;;;;;;;27.56;62.65;99637.41;5054373;28;20049;-68
2022/08/24 09:47:38;;;;;;;2.05;1.88;;;;;;;27.61;62.18;99635.31;5055281;28;20041;-68
2022/08/24 09:50:27;;;;;;;1.25;1.10;;;;;;;27.58;61.15;99632.91;5056399;28;20064;-69
2022/08/24 09:53:20;;;;;;;1.80;1.33;;;;;;;27.59;59.43;99625.88;5056160;28;20077;-67
2022/08/24 09:56:05;;;;;;;2.35;1.58;;;;;;;27.70;59.11;99636.44;5055859;28;20052;-68
2022/08/24 09:58:49;;;;;;;2.22;1.40;;;;;;;27.87;59.85;99631.66;5068729;28;20041;-66
2022/08/24 10:01:26;;;;;;;2.55;2.35;;;;;;;27.91;59.86;99638.34;5056486;28;20090;-67
2022/08/24 10:04:11;;;;;;;1.90;1.40;;;;;;;28.02;59.15;99631.50;5056176;28;20106;-67
2022/08/24 10:06:54;;;;;;;1.30;1.15;;;;;;;28.09;59.21;99619.59;5070202;28;20372;-67
2022/08/24 10:09:46;;;;;;;1.52;1.42;;;;;;;28.09;59.02;99619.59;5086498;28;20064;-66
2022/08/24 10:12:26;;;;;;;3.08;2.00;;;;;;;27.98;58.86;99616.91;5075167;28;20045;-69
2022/08/24 10:15:04;;;;;;;2.65;1.70;;;;;;;27.84;59.58;99612.66;5075762;28;20128;-69
2022/08/24 10:17:47;;;;;;;0.93;0.90;;;;;;;27.82;61.09;99604.91;5075770;28;20115;-67
2022/08/24 10:20:23;;;;;;;2.03;1.42;;;;;;;27.86;60.84;99593.22;5079827;28;20072;-67
2022/08/24 10:23:10;;;;;;;2.58;1.85;;;;;;;27.92;59.95;99595.41;5075394;28;20124;-68
2022/08/24 10:25:47;;;;;;;1.38;1.27;;;;;;;27.96;59.37;99596.00;5095224;28;20055;-68
2022/08/24 10:28:48;;;;;;;1.88;1.40;;;;;;;28.12;60.54;99599.19;5095581;28;20041;-68
2022/08/24 10:31:22;;;;;;;2.75;1.80;;;;;;;28.23;59.59;99595.78;5089977;28;20052;-68
2022/08/24 10:34:07;;;;;;;1.23;1.10;;;;;;;28.32;58.96;99595.94;5095433;28;20046;-67
2022/08/24 10:36:59;;;;;;;2.00;1.60;;;;;;;28.52;58.91;99592.66;5088542;28;20490;-67
2022/08/24 10:39:50;;;;;;;1.33;1.10;;;;;;;28.77;58.72;99591.63;5075186;28;20510;-66
2022/08/24 10:45:37;;;;;;;2.20;1.73;;;;;;;28.75;56.67;99593.56;5095736;28;20048;-69
2022/08/24 10:48:27;;;;;;;4.20;2.85;;;;;;;28.93;57.77;99596.56;5094317;28;20059;-69
2022/08/24 10:51:03;;;;;;;1.38;1.27;;;;;;;29.07;58.09;99594.53;5085511;28;20044;-69
2022/08/24 10:53:35;;;;;;;2.65;1.75;;;;;;;29.13;57.75;99593.22;5094984;28;20070;-68
2022/08/24 10:56:08;;;;;;;2.17;1.33;;;;;;;29.06;56.31;99598.09;5095077;28;20059;-69
2022/08/24 10:58:50;;;;;;;2.17;1.83;;;;;;;28.92;58.33;99593.09;5094977;28;20052;-70
2022/08/24 11:01:23;;;;;;;1.23;1.13;;;;;;;28.73;57.78;99605.97;5095659;28;20474;-69
2022/08/24 11:04:03;;;;;;;1.95;1.70;;;;;;;28.56;57.95;99604.59;5090269;28;20105;-69
2022/08/24 11:06:34;;;;;;;3.45;2.35;;;;;;;28.36;56.59;99604.44;5074738;28;20075;-68
2022/08/24 11:09:09;;;;;;;1.67;1.42;;;;;;;28.14;56.29;99586.81;5077633;28;20123;-68
2022/08/24 11:11:47;;;;;;;2.55;1.88;;;;;;;28.24;56.10;99597.47;5084377;28;20044;-68
2022/08/24 11:14:26;;;;;;;2.67;1.40;;;;;;;28.27;56.38;99592.81;5094635;28;20043;-68
2022/08/24 11:17:14;;;;;;;1.52;1.17;;;;;;;28.28;56.30;99598.91;5094597;28;20063;-68
2022/08/24 11:19:44;;;;;;;0.93;0.88;;;;;;;28.28;56.46;99596.28;5087857;28;20071;-68
2022/08/24 11:22:29;;;;;;;4.78;1.75;;;;;;;28.25;56.75;99601.75;5088332;28;20102;-68
2022/08/24 11:25:03;;;;;;;1.80;1.60;;;;;;;28.30;57.50;99597.00;5079773;28;20402;-68
2022/08/24 11:27:36;;;;;;;1.60;1.10;;;;;;;28.37;57.32;99600.84;5078302;28;20040;-68
2022/08/24 11:30:14;;;;;;;2.00;1.52;;;;;;;28.49;56.49;99605.19;5074260;28;20044;-71
2022/08/24 11:32:45;;;;;;;2.67;1.52;;;;;;;28.69;55.80;99612.44;5083214;28;20040;-67
2022/08/24 11:35:24;;;;;;;1.38;1.25;;;;;;;28.89;54.75;99601.22;5074344;28;20402;-68
2022/08/24 11:37:54;;;;;;;;;;;;;;;29.11;53.95;99598.59;5074419;28;20063;-68
2022/08/24 11:40:34;;;;;;;3.40;1.77;;;;;;;29.23;53.45;99599.44;5074256;28;19921;-68
2022/08/24 11:43:22;;;;;;;1.63;1.33;;;;;;;29.30;53.45;99597.19;5073954;28;20058;-69
2022/08/24 11:46:07;;;;;;;1.30;1.20;;;;;;;29.44;54.21;99586.41;5074145;28;20123;-68
2022/08/24 11:48:47;;;;;;;1.27;1.02;;;;;;;29.40;53.91;99584.97;5073849;28;20139;-68
2022/08/24 11:51:28;;;;;;;1.67;1.40;;;;;;;29.50;53.61;99589.38;5073883;28;20056;-67
2022/08/24 11:54:05;;;;;;;1.38;1.27;;;;;;;29.46;53.07;99595.00;5073944;28;20090;-68
2022/08/24 11:56:45;;;;;;;1.02;0.93;;;;;;;29.31;52.89;99596.22;5073885;28;20052;-67
2022/08/24 11:59:24;;;;;;;1.13;1.00;;;;;;;29.16;53.94;99593.81;5073718;28;20072;-68
2022/08/24 12:01:57;;;;;;;1.85;1.65;;;;;;;29.00;54.05;99593.34;5073635;28;20138;-68
2022/08/24 12:04:42;;;;;;;2.92;2.13;;;;;;;28.93;55.57;99586.91;5073612;28;20131;-68
2022/08/24 12:07:20;;;;;;;1.13;1.02;;;;;;;28.89;55.69;99590.69;5073761;28;20418;-68
2022/08/24 12:10:02;;;;;;;2.67;1.70;;;;;;;28.99;55.43;99589.03;5073859;28;20508;-68
2022/08/24 12:12:42;;;;;;;1.35;1.25;;;;;;;29.03;55.72;99582.56;5073496;28;20051;-68
2022/08/24 12:15:17;;;;;;;1.58;1.30;;;;;;;28.90;56.21;99587.13;5073507;28;20110;-68
2022/08/24 12:17:53;;;;;;;1.65;1.45;;;;;;;28.79;56.65;99595.00;5073494;28;20056;-68
2022/08/24 12:20:30;;;;;;;1.13;1.02;;;;;;;28.70;56.24;99585.19;5073831;28;20044;-68
2022/08/24 12:23:04;;;;;;;1.45;1.25;;;;;;;28.83;55.10;99583.28;5073469;28;20049;-68